KBWIKDMW

Guest
Details From KBWI - Baltimore Washington Intl
To KDMW - CARROLL CO RGNL JACK B POAGE FLD
Flight Number -
Tags generated
Created
Modified
Stats Distance 31 nm / 57 km
Max Altitude 3,400 ft / 1,036 m
Waypoints 3
Social Downloads 2
Likes 0
Share VATSIM

Download

Looking for another format? Having issues loading an existing format? Contact us
Advertisement - Login to hide

Notes

Basic altitude profile: - Ascent Rate: 2500ft/min - Ascent Speed: 250kts - Cruise Altitude: 35000ft - Cruise Speed: 420kts - Descent Rate: 1500ft/min - Descent Speed: 250kts Options: - Use NATs: yes - Use PACOTS: yes - Use low airways: yes - Use high airways: no

Route

KBWI SLOAF KDMW

ID Type Via Altitude Latitude Longitude Leg Dist Tot Dist Heading (true) Name
O KBWI APT - 0 ft / 0 m 39.17601˚ -76.66682˚ - 0 nm - Baltimore Washington Intl
SLOAF FIX - 3,400 ft / 1,036 m 39.36674˚ -76.85136˚ 14 nm 14 nm 323° / 323° -
O KDMW APT - 0 ft / 0 m 39.60828˚ -77.00766˚ 16 nm 30 nm 334° / 333° CARROLL CO RGNL JACK B POAGE FLD

Altitude Profile

Advertisement - Login to hide

KBWI

Details ICAO KBWI (BWI)
Name Baltimore Washington Intl
Region United States
Timezone America/New_York (UTC-5.0)
Stats Elevation 146 ft / 45 m (AMSL)
Location 39.176013° -76.666823°
Runways 4
Magnetic Variation 11.107° W

METAR

KBWI 102354Z COR 21004KT 10SM FEW140 SCT200 02/M06 A3005 RMK AO2 SLP177 4/001 T00171056 10039 20006 53009

Decode

TAF

KBWI 102328Z 1100/1206 VRB03KT P6SM BKN090 FM111100 VRB03KT P6SM SCT045 FM111500 27006KT P6SM FEW200 FM112100 21004KT P6SM SCT140 FM112300 17004KT P6SM BKN100

Decode

Departure Runways

ID Width Length Bearing (true) Bearing (mag) Surface Threshold Offset Overrun Length
04 151 ft / 46 m 6,005 ft / 1,830 m 33.09° 44.20° Asphalt 0 ft / 0 m 0 ft / 0 m
10 200 ft / 61 m 10,880 ft / 3,316 m 94.21° 105.32° Asphalt 751 ft / 229 m 400 ft / 122 m
15L 98 ft / 30 m 5,002 ft / 1,525 m 144.33° 155.44° Asphalt 0 ft / 0 m 0 ft / 0 m
15R 151 ft / 46 m 9,506 ft / 2,897 m 144.31° 155.42° Asphalt 0 ft / 0 m 98 ft / 30 m
22 151 ft / 46 m 6,005 ft / 1,830 m 213.09° 224.20° Asphalt 0 ft / 0 m 0 ft / 0 m
28 200 ft / 61 m 10,880 ft / 3,316 m 274.23° 285.34° Asphalt 699 ft / 213 m 400 ft / 122 m
33L 151 ft / 46 m 9,506 ft / 2,897 m 324.33° 335.44° Asphalt 0 ft / 0 m 75 ft / 23 m
33R 98 ft / 30 m 5,002 ft / 1,525 m 324.33° 335.44° Asphalt 0 ft / 0 m 0 ft / 0 m

KDMW

Details ICAO KDMW
Name CARROLL CO RGNL JACK B POAGE FLD
Region United States
Timezone America/New_York (UTC-5.0)
Stats Elevation 789 ft / 240 m (AMSL)
Location 39.608278° -77.007657°
Runways 1
Magnetic Variation 11.001° W

METAR

KDMW 110005Z AUTO 22005KT 10SM CLR 01/M05 A3000 RMK AO2

Decode

TAF

Not found

Destination Runways

ID Width Length Bearing (true) Bearing (mag) Surface Threshold Offset Overrun Length
16 100 ft / 30 m 5,104 ft / 1,556 m 148.13° 159.13° Asphalt 0 ft / 0 m 0 ft / 0 m
34 100 ft / 30 m 5,104 ft / 1,556 m 328.13° 339.13° Asphalt 0 ft / 0 m 0 ft / 0 m